Terminal Aerodrome Forecast
Issued by NWS

Home | Current Version | Previous Version | Text Only | Print | Product List | Glossary On
Versions: 1 2 3 4 5 6 7 8 9 10 11 12 13 14 15 16 17 18 19 20
387
FTUS46 KSEW 140215 AAA
TAFOLM
TAF AMD
KOLM 140215Z 1402/1424 19012KT P6SM -RA SCT015 OVC035
      TEMPO 1402/1405 19015G25KT 4SM -RA BR BKN015 OVC030
     FM141100 19007KT 6SM -RA BR OVC018=

USA.gov is the U.S. government's official web portal to all federal, state and local government web resources and services.